sensor_id;sensor_type;location;lat;lon;timestamp;P1;durP1;ratioP1;P2;durP2;ratioP2
3841;SDS011;1936;47.074;15.336;2023-04-06T00:00:31;7.10;;;3.58;;
3841;SDS011;1936;47.074;15.336;2023-04-06T00:02:35;4.35;;;3.22;;
3841;SDS011;1936;47.074;15.336;2023-04-06T00:04:39;3.38;;;2.15;;
3841;SDS011;1936;47.074;15.336;2023-04-06T00:06:43;3.67;;;3.00;;
3841;SDS011;1936;47.074;15.336;2023-04-06T00:08:48;3.60;;;2.67;;
3841;SDS011;1936;47.074;15.336;2023-04-06T00:10:52;5.55;;;3.75;;
3841;SDS011;1936;47.074;15.336;2023-04-06T00:12:55;6.03;;;4.43;;
3841;SDS011;1936;47.074;15.336;2023-04-06T00:14:59;6.15;;;3.75;;
3841;SDS011;1936;47.074;15.336;2023-04-06T00:17:03;8.43;;;4.75;;
3841;SDS011;1936;47.074;15.336;2023-04-06T00:19:07;4.97;;;4.03;;
3841;SDS011;1936;47.074;15.336;2023-04-06T00:21:11;5.78;;;3.80;;
3841;SDS011;1936;47.074;15.336;2023-04-06T00:23:15;5.40;;;3.90;;
3841;SDS011;1936;47.074;15.336;2023-04-06T00:25:20;4.95;;;4.45;;
3841;SDS011;1936;47.074;15.336;2023-04-06T00:27:24;6.22;;;5.32;;
3841;SDS011;1936;47.074;15.336;2023-04-06T00:29:27;7.22;;;3.35;;
3841;SDS011;1936;47.074;15.336;2023-04-06T00:31:31;3.97;;;3.00;;
3841;SDS011;1936;47.074;15.336;2023-04-06T00:33:35;4.00;;;2.97;;
3841;SDS011;1936;47.074;15.336;2023-04-06T00:35:39;5.03;;;2.60;;
3841;SDS011;1936;47.074;15.336;2023-04-06T00:37:42;3.65;;;3.00;;
3841;SDS011;1936;47.074;15.336;2023-04-06T00:39:46;3.17;;;2.88;;
3841;SDS011;1936;47.074;15.336;2023-04-06T00:41:52;4.75;;;2.72;;
3841;SDS011;1936;47.074;15.336;2023-04-06T00:43:56;5.15;;;3.28;;
3841;SDS011;1936;47.074;15.336;2023-04-06T00:46:00;3.17;;;2.47;;
3841;SDS011;1936;47.074;15.336;2023-04-06T00:48:04;3.55;;;2.80;;
3841;SDS011;1936;47.074;15.336;2023-04-06T00:50:08;4.13;;;3.05;;
3841;SDS011;1936;47.074;15.336;2023-04-06T00:52:12;8.48;;;2.65;;
3841;SDS011;1936;47.074;15.336;2023-04-06T00:54:16;3.28;;;2.47;;
3841;SDS011;1936;47.074;15.336;2023-04-06T00:56:20;3.78;;;2.95;;
3841;SDS011;1936;47.074;15.336;2023-04-06T00:58:26;4.45;;;2.80;;
3841;SDS011;1936;47.074;15.336;2023-04-06T01:00:30;4.60;;;2.78;;
3841;SDS011;1936;47.074;15.336;2023-04-06T01:02:34;4.00;;;3.35;;
3841;SDS011;1936;47.074;15.336;2023-04-06T01:04:39;3.78;;;2.40;;
3841;SDS011;1936;47.074;15.336;2023-04-06T01:06:43;3.08;;;2.85;;
3841;SDS011;1936;47.074;15.336;2023-04-06T01:08:47;3.80;;;2.90;;
3841;SDS011;1936;47.074;15.336;2023-04-06T01:10:50;5.55;;;3.22;;
3841;SDS011;1936;47.074;15.336;2023-04-06T01:12:54;2.67;;;2.10;;
3841;SDS011;1936;47.074;15.336;2023-04-06T01:15:00;3.30;;;2.97;;
3841;SDS011;1936;47.074;15.336;2023-04-06T01:17:03;3.90;;;3.10;;
3841;SDS011;1936;47.074;15.336;2023-04-06T01:19:08;3.40;;;2.55;;
3841;SDS011;1936;47.074;15.336;2023-04-06T01:21:12;4.03;;;2.45;;
3841;SDS011;1936;47.074;15.336;2023-04-06T01:23:19;4.57;;;2.80;;
3841;SDS011;1936;47.074;15.336;2023-04-06T01:25:23;3.97;;;2.65;;
3841;SDS011;1936;47.074;15.336;2023-04-06T01:27:27;7.03;;;2.65;;
3841;SDS011;1936;47.074;15.336;2023-04-06T01:29:31;3.05;;;2.63;;
3841;SDS011;1936;47.074;15.336;2023-04-06T01:31:35;3.15;;;2.72;;
3841;SDS011;1936;47.074;15.336;2023-04-06T01:33:39;4.65;;;2.30;;
3841;SDS011;1936;47.074;15.336;2023-04-06T01:35:42;2.85;;;2.45;;
3841;SDS011;1936;47.074;15.336;2023-04-06T01:37:46;4.35;;;2.70;;
3841;SDS011;1936;47.074;15.336;2023-04-06T01:39:51;3.22;;;2.47;;
3841;SDS011;1936;47.074;15.336;2023-04-06T01:41:55;5.10;;;2.92;;
3841;SDS011;1936;47.074;15.336;2023-04-06T01:43:59;3.45;;;2.53;;
3841;SDS011;1936;47.074;15.336;2023-04-06T01:46:03;4.28;;;3.17;;
3841;SDS011;1936;47.074;15.336;2023-04-06T01:48:07;5.50;;;2.70;;
3841;SDS011;1936;47.074;15.336;2023-04-06T01:50:11;4.10;;;3.08;;
3841;SDS011;1936;47.074;15.336;2023-04-06T01:52:15;3.63;;;2.40;;
3841;SDS011;1936;47.074;15.336;2023-04-06T01:54:19;2.47;;;2.25;;
3841;SDS011;1936;47.074;15.336;2023-04-06T01:56:24;2.28;;;2.08;;
3841;SDS011;1936;47.074;15.336;2023-04-06T01:58:28;4.30;;;3.03;;
3841;SDS011;1936;47.074;15.336;2023-04-06T02:00:32;16.67;;;2.75;;
3841;SDS011;1936;47.074;15.336;2023-04-06T02:02:35;8.48;;;3.92;;
3841;SDS011;1936;47.074;15.336;2023-04-06T02:04:39;3.53;;;2.80;;
3841;SDS011;1936;47.074;15.336;2023-04-06T02:06:43;8.55;;;3.15;;
3841;SDS011;1936;47.074;15.336;2023-04-06T02:08:47;2.85;;;2.22;;
3841;SDS011;1936;47.074;15.336;2023-04-06T02:10:51;6.18;;;2.10;;
3841;SDS011;1936;47.074;15.336;2023-04-06T02:12:56;3.60;;;3.17;;
3841;SDS011;1936;47.074;15.336;2023-04-06T02:15:00;7.88;;;2.85;;
3841;SDS011;1936;47.074;15.336;2023-04-06T02:17:04;3.17;;;2.15;;
3841;SDS011;1936;47.074;15.336;2023-04-06T02:19:07;5.25;;;2.83;;
3841;SDS011;1936;47.074;15.336;2023-04-06T02:21:11;5.90;;;3.38;;
3841;SDS011;1936;47.074;15.336;2023-04-06T02:23:15;4.40;;;3.10;;
3841;SDS011;1936;47.074;15.336;2023-04-06T02:25:19;3.60;;;2.72;;
3841;SDS011;1936;47.074;15.336;2023-04-06T02:27:23;6.07;;;2.20;;
3841;SDS011;1936;47.074;15.336;2023-04-06T02:29:29;5.70;;;3.00;;
3841;SDS011;1936;47.074;15.336;2023-04-06T02:31:33;2.95;;;2.65;;
3841;SDS011;1936;47.074;15.336;2023-04-06T02:33:36;2.65;;;2.33;;
3841;SDS011;1936;47.074;15.336;2023-04-06T02:35:40;4.13;;;2.80;;
3841;SDS011;1936;47.074;15.336;2023-04-06T02:37:44;3.05;;;2.30;;
3841;SDS011;1936;47.074;15.336;2023-04-06T02:39:48;4.43;;;2.70;;
3841;SDS011;1936;47.074;15.336;2023-04-06T02:41:52;3.67;;;2.72;;
3841;SDS011;1936;47.074;15.336;2023-04-06T02:43:56;3.67;;;2.50;;
3841;SDS011;1936;47.074;15.336;2023-04-06T02:46:01;3.90;;;2.83;;
3841;SDS011;1936;47.074;15.336;2023-04-06T02:48:05;4.68;;;2.65;;
3841;SDS011;1936;47.074;15.336;2023-04-06T02:50:09;3.28;;;2.97;;
3841;SDS011;1936;47.074;15.336;2023-04-06T02:52:13;3.28;;;2.38;;
3841;SDS011;1936;47.074;15.336;2023-04-06T02:54:19;4.43;;;2.50;;
3841;SDS011;1936;47.074;15.336;2023-04-06T02:56:22;3.42;;;2.25;;
3841;SDS011;1936;47.074;15.336;2023-04-06T02:58:27;4.07;;;2.28;;
3841;SDS011;1936;47.074;15.336;2023-04-06T03:00:31;3.65;;;2.30;;
3841;SDS011;1936;47.074;15.336;2023-04-06T03:02:36;2.63;;;2.42;;
3841;SDS011;1936;47.074;15.336;2023-04-06T03:04:40;3.20;;;2.60;;
3841;SDS011;1936;47.074;15.336;2023-04-06T03:06:44;4.40;;;2.65;;
3841;SDS011;1936;47.074;15.336;2023-04-06T03:08:48;4.25;;;2.78;;
3841;SDS011;1936;47.074;15.336;2023-04-06T03:10:51;3.67;;;2.85;;
3841;SDS011;1936;47.074;15.336;2023-04-06T03:12:55;3.22;;;2.20;;
3841;SDS011;1936;47.074;15.336;2023-04-06T03:14:59;6.05;;;2.45;;
3841;SDS011;1936;47.074;15.336;2023-04-06T03:17:02;3.47;;;2.10;;
3841;SDS011;1936;47.074;15.336;2023-04-06T03:19:08;4.35;;;2.65;;
3841;SDS011;1936;47.074;15.336;2023-04-06T03:21:11;4.75;;;3.55;;
3841;SDS011;1936;47.074;15.336;2023-04-06T03:23:16;4.45;;;3.08;;
3841;SDS011;1936;47.074;15.336;2023-04-06T03:25:22;2.97;;;2.40;;
3841;SDS011;1936;47.074;15.336;2023-04-06T03:27:26;5.65;;;2.45;;
3841;SDS011;1936;47.074;15.336;2023-04-06T03:29:29;4.70;;;3.42;;
3841;SDS011;1936;47.074;15.336;2023-04-06T03:31:33;5.07;;;2.63;;
3841;SDS011;1936;47.074;15.336;2023-04-06T03:33:37;3.75;;;2.65;;
3841;SDS011;1936;47.074;15.336;2023-04-06T03:35:42;2.88;;;2.20;;
3841;SDS011;1936;47.074;15.336;2023-04-06T03:37:46;5.32;;;2.90;;
3841;SDS011;1936;47.074;15.336;2023-04-06T03:39:49;10.82;;;4.32;;
3841;SDS011;1936;47.074;15.336;2023-04-06T03:41:53;5.28;;;3.90;;
3841;SDS011;1936;47.074;15.336;2023-04-06T03:43:57;4.88;;;4.38;;
3841;SDS011;1936;47.074;15.336;2023-04-06T03:46:00;6.13;;;4.43;;
3841;SDS011;1936;47.074;15.336;2023-04-06T03:48:05;6.45;;;5.10;;
3841;SDS011;1936;47.074;15.336;2023-04-06T03:50:09;6.88;;;4.18;;
3841;SDS011;1936;47.074;15.336;2023-04-06T03:52:14;8.20;;;5.03;;
3841;SDS011;1936;47.074;15.336;2023-04-06T03:54:18;5.13;;;4.50;;
3841;SDS011;1936;47.074;15.336;2023-04-06T03:56:22;5.05;;;4.00;;
3841;SDS011;1936;47.074;15.336;2023-04-06T03:58:26;5.90;;;4.63;;
3841;SDS011;1936;47.074;15.336;2023-04-06T04:00:30;7.70;;;4.35;;
3841;SDS011;1936;47.074;15.336;2023-04-06T04:02:34;6.03;;;3.70;;
3841;SDS011;1936;47.074;15.336;2023-04-06T04:04:38;11.02;;;4.47;;
3841;SDS011;1936;47.074;15.336;2023-04-06T04:06:42;5.75;;;4.03;;
3841;SDS011;1936;47.074;15.336;2023-04-06T04:08:47;8.35;;;4.10;;
3841;SDS011;1936;47.074;15.336;2023-04-06T04:10:51;5.40;;;4.10;;
3841;SDS011;1936;47.074;15.336;2023-04-06T04:12:54;5.13;;;3.92;;
3841;SDS011;1936;47.074;15.336;2023-04-06T04:14:58;5.10;;;2.75;;
3841;SDS011;1936;47.074;15.336;2023-04-06T04:17:02;3.35;;;2.97;;
3841;SDS011;1936;47.074;15.336;2023-04-06T04:19:05;7.43;;;3.28;;
3841;SDS011;1936;47.074;15.336;2023-04-06T04:21:10;3.42;;;3.13;;
3841;SDS011;1936;47.074;15.336;2023-04-06T04:23:14;4.30;;;2.72;;
3841;SDS011;1936;47.074;15.336;2023-04-06T04:25:22;5.38;;;3.00;;
3841;SDS011;1936;47.074;15.336;2023-04-06T04:27:26;8.80;;;3.67;;
3841;SDS011;1936;47.074;15.336;2023-04-06T04:29:30;2.95;;;2.42;;
3841;SDS011;1936;47.074;15.336;2023-04-06T04:31:34;3.25;;;2.65;;
3841;SDS011;1936;47.074;15.336;2023-04-06T04:33:38;12.82;;;3.78;;
3841;SDS011;1936;47.074;15.336;2023-04-06T04:35:41;4.65;;;3.05;;
3841;SDS011;1936;47.074;15.336;2023-04-06T04:37:45;6.10;;;3.78;;
3841;SDS011;1936;47.074;15.336;2023-04-06T04:39:49;3.33;;;2.90;;
3841;SDS011;1936;47.074;15.336;2023-04-06T04:41:54;4.43;;;2.90;;
3841;SDS011;1936;47.074;15.336;2023-04-06T04:43:58;3.70;;;3.20;;
3841;SDS011;1936;47.074;15.336;2023-04-06T04:46:02;6.95;;;3.75;;
3841;SDS011;1936;47.074;15.336;2023-04-06T04:48:06;3.78;;;3.08;;
3841;SDS011;1936;47.074;15.336;2023-04-06T04:50:10;7.18;;;3.20;;
3841;SDS011;1936;47.074;15.336;2023-04-06T04:52:13;4.95;;;3.45;;
3841;SDS011;1936;47.074;15.336;2023-04-06T04:54:17;5.32;;;3.60;;
3841;SDS011;1936;47.074;15.336;2023-04-06T04:56:21;6.97;;;3.95;;
3841;SDS011;1936;47.074;15.336;2023-04-06T04:58:27;4.93;;;3.58;;
3841;SDS011;1936;47.074;15.336;2023-04-06T05:00:30;12.68;;;5.30;;
3841;SDS011;1936;47.074;15.336;2023-04-06T05:02:34;11.52;;;4.32;;
3841;SDS011;1936;47.074;15.336;2023-04-06T05:04:38;9.23;;;3.90;;
3841;SDS011;1936;47.074;15.336;2023-04-06T05:06:42;5.15;;;3.28;;
3841;SDS011;1936;47.074;15.336;2023-04-06T05:08:46;5.60;;;3.60;;
3841;SDS011;1936;47.074;15.336;2023-04-06T05:10:49;8.20;;;4.70;;
3841;SDS011;1936;47.074;15.336;2023-04-06T05:12:53;12.32;;;3.85;;
3841;SDS011;1936;47.074;15.336;2023-04-06T05:14:58;6.20;;;3.70;;
3841;SDS011;1936;47.074;15.336;2023-04-06T05:17:02;6.50;;;3.35;;
3841;SDS011;1936;47.074;15.336;2023-04-06T05:19:06;6.78;;;4.07;;
3841;SDS011;1936;47.074;15.336;2023-04-06T05:21:10;7.22;;;3.60;;
3841;SDS011;1936;47.074;15.336;2023-04-06T05:23:14;4.63;;;3.28;;
3841;SDS011;1936;47.074;15.336;2023-04-06T05:25:18;3.65;;;3.10;;
3841;SDS011;1936;47.074;15.336;2023-04-06T05:27:22;6.43;;;3.47;;
3841;SDS011;1936;47.074;15.336;2023-04-06T05:29:26;5.20;;;3.53;;
3841;SDS011;1936;47.074;15.336;2023-04-06T05:31:31;6.28;;;5.55;;
3841;SDS011;1936;47.074;15.336;2023-04-06T05:33:35;8.85;;;7.13;;
3841;SDS011;1936;47.074;15.336;2023-04-06T05:35:39;11.70;;;6.18;;
3841;SDS011;1936;47.074;15.336;2023-04-06T05:37:43;9.77;;;5.05;;
3841;SDS011;1936;47.074;15.336;2023-04-06T05:39:47;4.78;;;4.28;;
3841;SDS011;1936;47.074;15.336;2023-04-06T05:41:51;5.57;;;3.85;;
3841;SDS011;1936;47.074;15.336;2023-04-06T05:43:55;6.70;;;4.32;;
3841;SDS011;1936;47.074;15.336;2023-04-06T05:45:58;8.02;;;2.85;;
3841;SDS011;1936;47.074;15.336;2023-04-06T05:48:04;6.80;;;3.72;;
3841;SDS011;1936;47.074;15.336;2023-04-06T05:50:08;4.13;;;2.78;;
3841;SDS011;1936;47.074;15.336;2023-04-06T05:52:11;6.68;;;3.10;;
3841;SDS011;1936;47.074;15.336;2023-04-06T05:54:16;5.60;;;4.28;;
3841;SDS011;1936;47.074;15.336;2023-04-06T05:56:20;4.30;;;3.00;;
3841;SDS011;1936;47.074;15.336;2023-04-06T05:58:25;5.45;;;3.53;;
3841;SDS011;1936;47.074;15.336;2023-04-06T06:00:28;4.53;;;3.17;;
3841;SDS011;1936;47.074;15.336;2023-04-06T06:02:32;4.60;;;3.05;;
3841;SDS011;1936;47.074;15.336;2023-04-06T06:04:38;8.40;;;3.40;;
3841;SDS011;1936;47.074;15.336;2023-04-06T06:06:42;2.72;;;2.50;;
3841;SDS011;1936;47.074;15.336;2023-04-06T06:08:46;8.95;;;3.10;;
3841;SDS011;1936;47.074;15.336;2023-04-06T06:10:49;8.07;;;3.20;;
3841;SDS011;1936;47.074;15.336;2023-04-06T06:12:53;3.05;;;2.65;;
3841;SDS011;1936;47.074;15.336;2023-04-06T06:14:57;4.47;;;3.03;;
3841;SDS011;1936;47.074;15.336;2023-04-06T06:17:01;3.60;;;2.90;;
3841;SDS011;1936;47.074;15.336;2023-04-06T06:19:05;8.18;;;3.10;;
3841;SDS011;1936;47.074;15.336;2023-04-06T06:21:11;6.97;;;3.55;;
3841;SDS011;1936;47.074;15.336;2023-04-06T06:23:15;3.13;;;2.77;;
3841;SDS011;1936;47.074;15.336;2023-04-06T06:25:18;8.50;;;4.07;;
3841;SDS011;1936;47.074;15.336;2023-04-06T06:27:23;5.47;;;4.20;;
3841;SDS011;1936;47.074;15.336;2023-04-06T06:29:27;4.80;;;2.97;;
3841;SDS011;1936;47.074;15.336;2023-04-06T06:31:30;8.10;;;2.97;;
3841;SDS011;1936;47.074;15.336;2023-04-06T06:33:34;12.47;;;3.27;;
3841;SDS011;1936;47.074;15.336;2023-04-06T06:35:38;5.17;;;4.13;;
3841;SDS011;1936;47.074;15.336;2023-04-06T06:37:43;8.17;;;2.70;;
3841;SDS011;1936;47.074;15.336;2023-04-06T06:39:47;5.73;;;3.40;;
3841;SDS011;1936;47.074;15.336;2023-04-06T06:41:51;3.83;;;3.10;;
3841;SDS011;1936;47.074;15.336;2023-04-06T06:43:55;5.37;;;4.00;;
3841;SDS011;1936;47.074;15.336;2023-04-06T06:45:59;5.90;;;3.30;;
3841;SDS011;1936;47.074;15.336;2023-04-06T06:48:03;4.03;;;3.63;;
3841;SDS011;1936;47.074;15.336;2023-04-06T06:50:07;12.10;;;3.60;;
3841;SDS011;1936;47.074;15.336;2023-04-06T06:52:11;5.87;;;3.70;;
3841;SDS011;1936;47.074;15.336;2023-04-06T06:54:17;4.07;;;3.07;;
3841;SDS011;1936;47.074;15.336;2023-04-06T06:56:21;3.50;;;3.00;;
3841;SDS011;1936;47.074;15.336;2023-04-06T06:58:24;4.03;;;2.50;;
3841;SDS011;1936;47.074;15.336;2023-04-06T07:00:28;4.37;;;3.10;;
3841;SDS011;1936;47.074;15.336;2023-04-06T07:02:33;3.77;;;2.90;;
3841;SDS011;1936;47.074;15.336;2023-04-06T07:04:38;7.40;;;4.30;;
3841;SDS011;1936;47.074;15.336;2023-04-06T07:06:42;5.67;;;3.00;;
3841;SDS011;1936;47.074;15.336;2023-04-06T07:08:46;4.10;;;2.40;;
3841;SDS011;1936;47.074;15.336;2023-04-06T07:10:51;3.70;;;2.80;;
3841;SDS011;1936;47.074;15.336;2023-04-06T07:12:57;4.07;;;3.53;;
3841;SDS011;1936;47.074;15.336;2023-04-06T07:15:01;3.00;;;2.23;;
3841;SDS011;1936;47.074;15.336;2023-04-06T07:17:06;4.07;;;2.60;;
3841;SDS011;1936;47.074;15.336;2023-04-06T07:19:11;4.07;;;2.77;;
3841;SDS011;1936;47.074;15.336;2023-04-06T07:21:15;4.90;;;3.07;;
3841;SDS011;1936;47.074;15.336;2023-04-06T07:23:19;4.13;;;3.20;;
3841;SDS011;1936;47.074;15.336;2023-04-06T07:25:22;3.70;;;2.80;;
3841;SDS011;1936;47.074;15.336;2023-04-06T07:27:28;4.77;;;3.43;;
3841;SDS011;1936;47.074;15.336;2023-04-06T07:29:32;4.07;;;2.83;;
3841;SDS011;1936;47.074;15.336;2023-04-06T07:31:35;5.50;;;3.50;;
3841;SDS011;1936;47.074;15.336;2023-04-06T07:33:39;8.23;;;3.00;;
3841;SDS011;1936;47.074;15.336;2023-04-06T07:35:43;4.50;;;2.73;;
3841;SDS011;1936;47.074;15.336;2023-04-06T07:37:47;4.87;;;3.47;;
3841;SDS011;1936;47.074;15.336;2023-04-06T07:39:51;4.27;;;3.27;;
3841;SDS011;1936;47.074;15.336;2023-04-06T07:41:55;4.50;;;2.67;;
3841;SDS011;1936;47.074;15.336;2023-04-06T07:44:00;5.07;;;3.40;;
3841;SDS011;1936;47.074;15.336;2023-04-06T07:46:04;5.37;;;3.43;;
3841;SDS011;1936;47.074;15.336;2023-04-06T07:48:09;3.60;;;2.70;;
3841;SDS011;1936;47.074;15.336;2023-04-06T07:50:12;5.43;;;3.60;;
3841;SDS011;1936;47.074;15.336;2023-04-06T07:52:16;5.43;;;2.83;;
3841;SDS011;1936;47.074;15.336;2023-04-06T07:54:20;4.07;;;3.00;;
3841;SDS011;1936;47.074;15.336;2023-04-06T07:56:24;4.73;;;3.23;;
3841;SDS011;1936;47.074;15.336;2023-04-06T07:58:28;3.67;;;3.10;;
3841;SDS011;1936;47.074;15.336;2023-04-06T08:00:33;5.20;;;3.57;;
3841;SDS011;1936;47.074;15.336;2023-04-06T08:02:37;3.77;;;2.90;;
3841;SDS011;1936;47.074;15.336;2023-04-06T08:04:41;5.57;;;4.10;;
3841;SDS011;1936;47.074;15.336;2023-04-06T08:06:46;6.77;;;3.87;;
3841;SDS011;1936;47.074;15.336;2023-04-06T08:08:49;15.43;;;4.20;;
3841;SDS011;1936;47.074;15.336;2023-04-06T08:10:53;5.07;;;2.67;;
3841;SDS011;1936;47.074;15.336;2023-04-06T08:12:57;4.13;;;3.40;;
3841;SDS011;1936;47.074;15.336;2023-04-06T08:15:01;8.07;;;3.50;;
3841;SDS011;1936;47.074;15.336;2023-04-06T08:17:06;3.47;;;3.17;;
3841;SDS011;1936;47.074;15.336;2023-04-06T08:19:10;4.47;;;2.77;;
3841;SDS011;1936;47.074;15.336;2023-04-06T08:21:14;3.40;;;3.00;;
3841;SDS011;1936;47.074;15.336;2023-04-06T08:23:17;5.70;;;4.13;;
3841;SDS011;1936;47.074;15.336;2023-04-06T08:25:21;4.87;;;2.80;;
3841;SDS011;1936;47.074;15.336;2023-04-06T08:27:25;4.47;;;2.80;;
3841;SDS011;1936;47.074;15.336;2023-04-06T08:29:29;4.60;;;3.20;;
3841;SDS011;1936;47.074;15.336;2023-04-06T08:31:33;4.47;;;2.97;;
3841;SDS011;1936;47.074;15.336;2023-04-06T08:33:39;6.27;;;3.33;;
3841;SDS011;1936;47.074;15.336;2023-04-06T08:35:43;3.00;;;2.70;;
3841;SDS011;1936;47.074;15.336;2023-04-06T08:37:47;8.70;;;3.20;;
3841;SDS011;1936;47.074;15.336;2023-04-06T08:39:51;4.50;;;3.03;;
3841;SDS011;1936;47.074;15.336;2023-04-06T08:41:55;4.27;;;2.87;;
3841;SDS011;1936;47.074;15.336;2023-04-06T08:44:01;5.30;;;3.37;;
3841;SDS011;1936;47.074;15.336;2023-04-06T08:46:06;4.67;;;3.10;;
3841;SDS011;1936;47.074;15.336;2023-04-06T08:48:10;4.70;;;2.93;;
3841;SDS011;1936;47.074;15.336;2023-04-06T08:50:16;4.37;;;3.97;;
3841;SDS011;1936;47.074;15.336;2023-04-06T08:52:21;4.23;;;2.90;;
3841;SDS011;1936;47.074;15.336;2023-04-06T08:54:24;7.73;;;3.37;;
3841;SDS011;1936;47.074;15.336;2023-04-06T08:56:29;5.53;;;2.97;;
3841;SDS011;1936;47.074;15.336;2023-04-06T08:58:35;5.03;;;3.53;;
3841;SDS011;1936;47.074;15.336;2023-04-06T09:00:39;4.03;;;3.40;;
3841;SDS011;1936;47.074;15.336;2023-04-06T09:02:44;3.70;;;3.40;;
3841;SDS011;1936;47.074;15.336;2023-04-06T09:04:48;4.23;;;2.83;;
3841;SDS011;1936;47.074;15.336;2023-04-06T09:06:54;4.23;;;3.50;;
3841;SDS011;1936;47.074;15.336;2023-04-06T09:08:58;4.93;;;2.80;;
3841;SDS011;1936;47.074;15.336;2023-04-06T09:11:01;7.20;;;2.97;;
3841;SDS011;1936;47.074;15.336;2023-04-06T09:13:06;5.10;;;2.87;;
3841;SDS011;1936;47.074;15.336;2023-04-06T09:15:19;4.07;;;2.93;;
3841;SDS011;1936;47.074;15.336;2023-04-06T09:17:26;4.30;;;3.07;;
3841;SDS011;1936;47.074;15.336;2023-04-06T09:19:30;6.03;;;2.80;;
3841;SDS011;1936;47.074;15.336;2023-04-06T09:21:34;6.03;;;3.00;;
3841;SDS011;1936;47.074;15.336;2023-04-06T09:23:39;5.10;;;2.90;;
3841;SDS011;1936;47.074;15.336;2023-04-06T09:25:43;3.60;;;3.03;;
3841;SDS011;1936;47.074;15.336;2023-04-06T09:27:47;4.50;;;2.93;;
3841;SDS011;1936;47.074;15.336;2023-04-06T09:29:51;4.10;;;3.50;;
3841;SDS011;1936;47.074;15.336;2023-04-06T09:32:05;3.43;;;2.97;;
3841;SDS011;1936;47.074;15.336;2023-04-06T09:34:19;6.37;;;3.93;;
3841;SDS011;1936;47.074;15.336;2023-04-06T09:36:29;3.87;;;2.40;;
3841;SDS011;1936;47.074;15.336;2023-04-06T09:38:34;4.53;;;2.90;;
3841;SDS011;1936;47.074;15.336;2023-04-06T09:40:48;3.47;;;3.13;;
3841;SDS011;1936;47.074;15.336;2023-04-06T09:43:01;8.03;;;3.47;;
3841;SDS011;1936;47.074;15.336;2023-04-06T09:45:08;4.17;;;3.10;;
3841;SDS011;1936;47.074;15.336;2023-04-06T09:47:13;3.77;;;3.30;;
3841;SDS011;1936;47.074;15.336;2023-04-06T09:49:17;3.63;;;2.63;;
3841;SDS011;1936;47.074;15.336;2023-04-06T09:51:25;4.07;;;2.70;;
3841;SDS011;1936;47.074;15.336;2023-04-06T09:53:29;3.57;;;1.87;;
3841;SDS011;1936;47.074;15.336;2023-04-06T09:55:34;3.47;;;2.37;;
3841;SDS011;1936;47.074;15.336;2023-04-06T09:57:43;3.53;;;2.70;;
3841;SDS011;1936;47.074;15.336;2023-04-06T09:59:50;3.97;;;2.20;;
3841;SDS011;1936;47.074;15.336;2023-04-06T10:01:54;3.00;;;2.10;;
3841;SDS011;1936;47.074;15.336;2023-04-06T10:04:02;6.43;;;2.80;;
3841;SDS011;1936;47.074;15.336;2023-04-06T10:06:10;3.20;;;2.27;;
3841;SDS011;1936;47.074;15.336;2023-04-06T10:08:14;2.73;;;1.60;;
3841;SDS011;1936;47.074;15.336;2023-04-06T10:10:18;2.77;;;2.50;;
3841;SDS011;1936;47.074;15.336;2023-04-06T10:12:23;3.93;;;2.60;;
3841;SDS011;1936;47.074;15.336;2023-04-06T10:14:28;5.40;;;3.10;;
3841;SDS011;1936;47.074;15.336;2023-04-06T10:16:32;3.80;;;3.50;;
3841;SDS011;1936;47.074;15.336;2023-04-06T10:18:37;2.87;;;2.50;;
3841;SDS011;1936;47.074;15.336;2023-04-06T10:20:43;2.50;;;1.90;;
3841;SDS011;1936;47.074;15.336;2023-04-06T10:22:51;4.60;;;2.50;;
3841;SDS011;1936;47.074;15.336;2023-04-06T10:24:58;6.57;;;2.07;;
3841;SDS011;1936;47.074;15.336;2023-04-06T10:27:02;4.10;;;1.97;;
3841;SDS011;1936;47.074;15.336;2023-04-06T10:29:06;2.90;;;2.60;;
3841;SDS011;1936;47.074;15.336;2023-04-06T10:31:11;3.30;;;2.03;;
3841;SDS011;1936;47.074;15.336;2023-04-06T10:33:16;3.30;;;2.67;;
3841;SDS011;1936;47.074;15.336;2023-04-06T10:35:20;5.33;;;2.13;;
3841;SDS011;1936;47.074;15.336;2023-04-06T10:37:25;2.83;;;1.83;;
3841;SDS011;1936;47.074;15.336;2023-04-06T10:39:29;3.10;;;2.27;;
3841;SDS011;1936;47.074;15.336;2023-04-06T10:41:33;3.77;;;2.27;;
3841;SDS011;1936;47.074;15.336;2023-04-06T10:43:38;2.57;;;1.93;;
3841;SDS011;1936;47.074;15.336;2023-04-06T10:45:42;3.77;;;2.47;;
3841;SDS011;1936;47.074;15.336;2023-04-06T10:47:48;3.83;;;1.77;;
3841;SDS011;1936;47.074;15.336;2023-04-06T10:49:52;2.23;;;1.73;;
3841;SDS011;1936;47.074;15.336;2023-04-06T10:51:56;2.53;;;2.33;;
3841;SDS011;1936;47.074;15.336;2023-04-06T10:54:00;2.87;;;1.73;;
3841;SDS011;1936;47.074;15.336;2023-04-06T10:56:04;1.80;;;1.70;;
3841;SDS011;1936;47.074;15.336;2023-04-06T10:58:13;2.83;;;2.20;;
3841;SDS011;1936;47.074;15.336;2023-04-06T11:00:17;2.10;;;1.87;;
3841;SDS011;1936;47.074;15.336;2023-04-06T11:02:22;3.67;;;1.63;;
3841;SDS011;1936;47.074;15.336;2023-04-06T11:04:27;4.37;;;2.10;;
3841;SDS011;1936;47.074;15.336;2023-04-06T11:06:31;2.13;;;1.63;;
3841;SDS011;1936;47.074;15.336;2023-04-06T11:08:35;5.30;;;1.97;;
3841;SDS011;1936;47.074;15.336;2023-04-06T11:10:41;3.90;;;1.57;;
3841;SDS011;1936;47.074;15.336;2023-04-06T11:12:44;3.80;;;1.60;;
3841;SDS011;1936;47.074;15.336;2023-04-06T11:14:54;3.23;;;1.77;;
3841;SDS011;1936;47.074;15.336;2023-04-06T11:17:03;1.73;;;1.33;;
3841;SDS011;1936;47.074;15.336;2023-04-06T11:19:07;1.90;;;1.70;;
3841;SDS011;1936;47.074;15.336;2023-04-06T11:21:12;4.10;;;1.80;;
3841;SDS011;1936;47.074;15.336;2023-04-06T11:23:22;2.70;;;1.83;;
3841;SDS011;1936;47.074;15.336;2023-04-06T11:25:26;3.17;;;1.83;;
3841;SDS011;1936;47.074;15.336;2023-04-06T11:27:33;1.77;;;1.43;;
3841;SDS011;1936;47.074;15.336;2023-04-06T11:29:36;2.20;;;1.80;;
3841;SDS011;1936;47.074;15.336;2023-04-06T11:31:42;2.20;;;1.80;;
3841;SDS011;1936;47.074;15.336;2023-04-06T11:33:48;2.47;;;1.63;;
3841;SDS011;1936;47.074;15.336;2023-04-06T11:35:58;3.03;;;1.40;;
3841;SDS011;1936;47.074;15.336;2023-04-06T11:38:04;2.10;;;1.87;;
3841;SDS011;1936;47.074;15.336;2023-04-06T11:40:08;1.93;;;1.63;;
3841;SDS011;1936;47.074;15.336;2023-04-06T11:42:12;1.90;;;1.23;;
3841;SDS011;1936;47.074;15.336;2023-04-06T11:44:26;1.90;;;1.37;;
3841;SDS011;1936;47.074;15.336;2023-04-06T11:46:30;1.83;;;1.40;;
3841;SDS011;1936;47.074;15.336;2023-04-06T11:48:43;3.20;;;1.20;;
3841;SDS011;1936;47.074;15.336;2023-04-06T11:50:47;2.53;;;1.67;;
3841;SDS011;1936;47.074;15.336;2023-04-06T11:52:57;1.47;;;1.00;;
3841;SDS011;1936;47.074;15.336;2023-04-06T11:55:11;2.60;;;1.57;;
3841;SDS011;1936;47.074;15.336;2023-04-06T11:57:16;1.67;;;1.17;;
3841;SDS011;1936;47.074;15.336;2023-04-06T11:59:19;2.00;;;1.40;;
3841;SDS011;1936;47.074;15.336;2023-04-06T12:01:24;3.37;;;1.93;;
3841;SDS011;1936;47.074;15.336;2023-04-06T12:03:28;1.83;;;1.20;;
3841;SDS011;1936;47.074;15.336;2023-04-06T12:05:32;1.93;;;1.40;;
3841;SDS011;1936;47.074;15.336;2023-04-06T12:07:36;1.87;;;1.37;;
3841;SDS011;1936;47.074;15.336;2023-04-06T12:09:40;3.53;;;1.53;;
3841;SDS011;1936;47.074;15.336;2023-04-06T12:11:46;1.77;;;1.10;;
3841;SDS011;1936;47.074;15.336;2023-04-06T12:13:50;6.73;;;2.00;;
3841;SDS011;1936;47.074;15.336;2023-04-06T12:15:54;3.37;;;1.00;;
3841;SDS011;1936;47.074;15.336;2023-04-06T12:17:57;2.90;;;1.90;;
3841;SDS011;1936;47.074;15.336;2023-04-06T12:20:02;2.50;;;1.73;;
3841;SDS011;1936;47.074;15.336;2023-04-06T12:22:22;3.47;;;1.30;;
3841;SDS011;1936;47.074;15.336;2023-04-06T12:24:27;2.23;;;1.60;;
3841;SDS011;1936;47.074;15.336;2023-04-06T12:26:31;1.90;;;1.23;;
3841;SDS011;1936;47.074;15.336;2023-04-06T12:28:36;2.20;;;1.43;;
3841;SDS011;1936;47.074;15.336;2023-04-06T12:30:40;4.80;;;1.10;;
3841;SDS011;1936;47.074;15.336;2023-04-06T12:32:44;3.93;;;2.17;;
3841;SDS011;1936;47.074;15.336;2023-04-06T12:34:51;3.07;;;1.40;;
3841;SDS011;1936;47.074;15.336;2023-04-06T12:36:55;4.70;;;1.30;;
3841;SDS011;1936;47.074;15.336;2023-04-06T12:39:00;2.50;;;1.50;;
3841;SDS011;1936;47.074;15.336;2023-04-06T12:41:04;2.67;;;1.20;;